ORER/EBL METAR and TAF weather

Enter ICAO airport designator
Station Type Date Time Source
ORER METAR 2020/12/06 01:00 UTC NOAA

ORER 060100Z 31003KT 290V350 CAVOK 05/01 Q1014 NOSIG


Station Type Date Time Source
ORER Decoded METAR 2020/12/06 01:00 UTC NOAA

Station name not available
Dec 05, 2020 - 08:00 PM EST / 2020.12.06 0100 UTC
Wind: from the NW (310 degrees) at 3 MPH (3 KT) (direction variable):0
Visibility: greater than 7 mile(s):0
Temperature: 41 F (5 C)
Dew Point: 33 F (1 C)
Relative Humidity: 75%
Pressure (altimeter): 29.94 in. Hg (1014 hPa)
ob: ORER 060100Z 31003KT 290V350 CAVOK 05/01 Q1014 NOSIG
cycle: 1

Station Type Date Time Source
ORER TAF 2020/12/05 18:14 UTC NOAA

TAF ORER 051700Z 0518/0618 VRB03KT 8000 SCT040 BKN080

Example: see airport list